sensor_id;sensor_type;location;lat;lon;timestamp;P1;durP1;ratioP1;P2;durP2;ratioP2
24859;SDS011;12936;52.006;4.350;2023-04-24T00:00:35;4.33;;;1.40;;
24859;SDS011;12936;52.006;4.350;2023-04-24T00:03:04;4.77;;;1.67;;
24859;SDS011;12936;52.006;4.350;2023-04-24T00:05:33;2.90;;;1.30;;
24859;SDS011;12936;52.006;4.350;2023-04-24T00:08:01;11.83;;;2.50;;
24859;SDS011;12936;52.006;4.350;2023-04-24T00:10:32;3.60;;;1.23;;
24859;SDS011;12936;52.006;4.350;2023-04-24T00:13:00;4.33;;;1.00;;
24859;SDS011;12936;52.006;4.350;2023-04-24T00:15:28;6.00;;;1.30;;
24859;SDS011;12936;52.006;4.350;2023-04-24T00:17:58;4.50;;;1.10;;
24859;SDS011;12936;52.006;4.350;2023-04-24T00:20:27;5.40;;;1.20;;
24859;SDS011;12936;52.006;4.350;2023-04-24T00:22:56;4.50;;;1.37;;
24859;SDS011;12936;52.006;4.350;2023-04-24T00:25:24;6.37;;;1.60;;
24859;SDS011;12936;52.006;4.350;2023-04-24T00:27:52;4.63;;;1.23;;
24859;SDS011;12936;52.006;4.350;2023-04-24T00:30:20;7.60;;;2.10;;
24859;SDS011;12936;52.006;4.350;2023-04-24T00:32:48;2.80;;;1.07;;
24859;SDS011;12936;52.006;4.350;2023-04-24T00:35:17;6.10;;;1.23;;
24859;SDS011;12936;52.006;4.350;2023-04-24T00:37:46;54.73;;;23.77;;
24859;SDS011;12936;52.006;4.350;2023-04-24T00:40:14;3.20;;;1.13;;
24859;SDS011;12936;52.006;4.350;2023-04-24T00:42:42;2.67;;;1.10;;
24859;SDS011;12936;52.006;4.350;2023-04-24T00:45:11;2.70;;;0.70;;
24859;SDS011;12936;52.006;4.350;2023-04-24T00:47:39;4.07;;;1.10;;
24859;SDS011;12936;52.006;4.350;2023-04-24T00:50:09;2.00;;;1.10;;
24859;SDS011;12936;52.006;4.350;2023-04-24T00:52:41;2.53;;;0.87;;
24859;SDS011;12936;52.006;4.350;2023-04-24T00:55:09;4.10;;;0.70;;
24859;SDS011;12936;52.006;4.350;2023-04-24T00:57:37;1.40;;;0.77;;
24859;SDS011;12936;52.006;4.350;2023-04-24T01:00:05;2.47;;;0.50;;
24859;SDS011;12936;52.006;4.350;2023-04-24T01:02:38;1.97;;;0.70;;
24859;SDS011;12936;52.006;4.350;2023-04-24T01:05:10;2.10;;;0.57;;
24859;SDS011;12936;52.006;4.350;2023-04-24T01:07:41;3.37;;;0.60;;
24859;SDS011;12936;52.006;4.350;2023-04-24T01:10:12;2.40;;;0.53;;
24859;SDS011;12936;52.006;4.350;2023-04-24T01:12:41;0.50;;;0.50;;
24859;SDS011;12936;52.006;4.350;2023-04-24T01:15:10;2.33;;;0.60;;
24859;SDS011;12936;52.006;4.350;2023-04-24T01:17:38;1.60;;;0.80;;
24859;SDS011;12936;52.006;4.350;2023-04-24T01:20:06;2.53;;;0.80;;
24859;SDS011;12936;52.006;4.350;2023-04-24T01:22:36;3.83;;;0.77;;
24859;SDS011;12936;52.006;4.350;2023-04-24T01:25:04;1.70;;;0.70;;
24859;SDS011;12936;52.006;4.350;2023-04-24T01:27:33;2.73;;;1.00;;
24859;SDS011;12936;52.006;4.350;2023-04-24T01:30:01;3.03;;;1.03;;
24859;SDS011;12936;52.006;4.350;2023-04-24T01:32:30;3.83;;;0.90;;
24859;SDS011;12936;52.006;4.350;2023-04-24T01:34:58;2.97;;;1.40;;
24859;SDS011;12936;52.006;4.350;2023-04-24T01:37:26;4.40;;;1.30;;
24859;SDS011;12936;52.006;4.350;2023-04-24T01:39:56;3.43;;;1.27;;
24859;SDS011;12936;52.006;4.350;2023-04-24T01:42:24;1.83;;;1.20;;
24859;SDS011;12936;52.006;4.350;2023-04-24T01:44:52;1.80;;;1.07;;
24859;SDS011;12936;52.006;4.350;2023-04-24T01:47:21;5.40;;;1.10;;
24859;SDS011;12936;52.006;4.350;2023-04-24T01:49:49;1.57;;;0.90;;
24859;SDS011;12936;52.006;4.350;2023-04-24T01:52:18;2.37;;;1.20;;
24859;SDS011;12936;52.006;4.350;2023-04-24T01:54:46;3.63;;;1.10;;
24859;SDS011;12936;52.006;4.350;2023-04-24T01:57:15;3.90;;;1.40;;
24859;SDS011;12936;52.006;4.350;2023-04-24T01:59:43;3.37;;;1.10;;
24859;SDS011;12936;52.006;4.350;2023-04-24T02:02:12;3.03;;;1.10;;
24859;SDS011;12936;52.006;4.350;2023-04-24T02:04:40;4.73;;;1.47;;
24859;SDS011;12936;52.006;4.350;2023-04-24T02:07:08;2.80;;;1.27;;
24859;SDS011;12936;52.006;4.350;2023-04-24T02:09:36;3.40;;;1.20;;
24859;SDS011;12936;52.006;4.350;2023-04-24T02:12:04;4.23;;;1.30;;
24859;SDS011;12936;52.006;4.350;2023-04-24T02:14:34;1.13;;;1.03;;
24859;SDS011;12936;52.006;4.350;2023-04-24T02:17:02;4.30;;;1.27;;
24859;SDS011;12936;52.006;4.350;2023-04-24T02:19:31;1.73;;;1.23;;
24859;SDS011;12936;52.006;4.350;2023-04-24T02:21:59;2.73;;;1.00;;
24859;SDS011;12936;52.006;4.350;2023-04-24T02:24:27;2.37;;;1.13;;
24859;SDS011;12936;52.006;4.350;2023-04-24T02:26:55;3.70;;;1.10;;
24859;SDS011;12936;52.006;4.350;2023-04-24T02:29:24;1.27;;;0.70;;
24859;SDS011;12936;52.006;4.350;2023-04-24T02:31:53;2.23;;;1.00;;
24859;SDS011;12936;52.006;4.350;2023-04-24T02:34:21;2.17;;;0.60;;
24859;SDS011;12936;52.006;4.350;2023-04-24T02:36:49;3.67;;;0.63;;
24859;SDS011;12936;52.006;4.350;2023-04-24T02:39:20;3.23;;;0.70;;
24859;SDS011;12936;52.006;4.350;2023-04-24T02:41:48;2.90;;;0.83;;
24859;SDS011;12936;52.006;4.350;2023-04-24T02:44:16;3.70;;;0.70;;
24859;SDS011;12936;52.006;4.350;2023-04-24T02:46:44;4.23;;;0.60;;
24859;SDS011;12936;52.006;4.350;2023-04-24T02:49:13;2.53;;;1.20;;
24859;SDS011;12936;52.006;4.350;2023-04-24T02:51:45;5.23;;;0.87;;
24859;SDS011;12936;52.006;4.350;2023-04-24T02:54:13;6.63;;;1.00;;
24859;SDS011;12936;52.006;4.350;2023-04-24T02:56:41;3.37;;;0.90;;
24859;SDS011;12936;52.006;4.350;2023-04-24T02:59:09;1.93;;;0.80;;
24859;SDS011;12936;52.006;4.350;2023-04-24T03:01:37;2.87;;;0.90;;
24859;SDS011;12936;52.006;4.350;2023-04-24T03:04:06;8.30;;;1.50;;
24859;SDS011;12936;52.006;4.350;2023-04-24T03:06:36;1.37;;;0.77;;
24859;SDS011;12936;52.006;4.350;2023-04-24T03:09:04;4.37;;;0.90;;
24859;SDS011;12936;52.006;4.350;2023-04-24T03:11:32;3.23;;;0.73;;
24859;SDS011;12936;52.006;4.350;2023-04-24T03:14:00;2.53;;;0.70;;
24859;SDS011;12936;52.006;4.350;2023-04-24T03:16:28;5.50;;;1.00;;
24859;SDS011;12936;52.006;4.350;2023-04-24T03:18:56;2.03;;;0.70;;
24859;SDS011;12936;52.006;4.350;2023-04-24T03:21:24;3.43;;;1.10;;
24859;SDS011;12936;52.006;4.350;2023-04-24T03:23:55;1.60;;;0.70;;
24859;SDS011;12936;52.006;4.350;2023-04-24T03:26:23;1.63;;;0.90;;
24859;SDS011;12936;52.006;4.350;2023-04-24T03:28:51;22.77;;;5.50;;
24859;SDS011;12936;52.006;4.350;2023-04-24T03:31:19;3.20;;;0.87;;
24859;SDS011;12936;52.006;4.350;2023-04-24T03:33:50;3.10;;;0.73;;
24859;SDS011;12936;52.006;4.350;2023-04-24T03:36:18;5.53;;;0.80;;
24859;SDS011;12936;52.006;4.350;2023-04-24T03:38:46;2.67;;;0.60;;
24859;SDS011;12936;52.006;4.350;2023-04-24T03:41:16;6.27;;;1.00;;
24859;SDS011;12936;52.006;4.350;2023-04-24T03:43:44;1.40;;;0.60;;
24859;SDS011;12936;52.006;4.350;2023-04-24T03:46:12;5.43;;;1.10;;
24859;SDS011;12936;52.006;4.350;2023-04-24T03:48:41;1.93;;;0.80;;
24859;SDS011;12936;52.006;4.350;2023-04-24T03:51:09;8.07;;;1.17;;
24859;SDS011;12936;52.006;4.350;2023-04-24T03:53:37;7.80;;;1.13;;
24859;SDS011;12936;52.006;4.350;2023-04-24T03:56:05;6.10;;;1.23;;
24859;SDS011;12936;52.006;4.350;2023-04-24T03:58:35;10.50;;;2.00;;
24859;SDS011;12936;52.006;4.350;2023-04-24T04:01:03;3.90;;;0.80;;
24859;SDS011;12936;52.006;4.350;2023-04-24T04:03:31;3.13;;;1.10;;
24859;SDS011;12936;52.006;4.350;2023-04-24T04:06:00;4.50;;;0.70;;
24859;SDS011;12936;52.006;4.350;2023-04-24T04:08:28;5.07;;;1.53;;
24859;SDS011;12936;52.006;4.350;2023-04-24T04:10:56;6.07;;;1.50;;
24859;SDS011;12936;52.006;4.350;2023-04-24T04:13:24;5.37;;;2.07;;
24859;SDS011;12936;52.006;4.350;2023-04-24T04:15:54;7.50;;;3.20;;
24859;SDS011;12936;52.006;4.350;2023-04-24T04:18:22;7.23;;;3.17;;
24859;SDS011;12936;52.006;4.350;2023-04-24T04:20:50;10.60;;;3.60;;
24859;SDS011;12936;52.006;4.350;2023-04-24T04:23:18;9.27;;;3.40;;
24859;SDS011;12936;52.006;4.350;2023-04-24T04:25:46;7.63;;;3.27;;
24859;SDS011;12936;52.006;4.350;2023-04-24T04:28:14;7.60;;;2.90;;
24859;SDS011;12936;52.006;4.350;2023-04-24T04:30:46;10.67;;;3.83;;
24859;SDS011;12936;52.006;4.350;2023-04-24T04:33:15;12.67;;;3.80;;
24859;SDS011;12936;52.006;4.350;2023-04-24T04:35:44;8.90;;;3.40;;
24859;SDS011;12936;52.006;4.350;2023-04-24T04:38:15;10.37;;;4.43;;
24859;SDS011;12936;52.006;4.350;2023-04-24T04:40:44;10.13;;;5.27;;
24859;SDS011;12936;52.006;4.350;2023-04-24T04:43:12;13.97;;;6.10;;
24859;SDS011;12936;52.006;4.350;2023-04-24T04:45:41;14.23;;;7.13;;
24859;SDS011;12936;52.006;4.350;2023-04-24T04:48:09;13.67;;;6.90;;
24859;SDS011;12936;52.006;4.350;2023-04-24T04:50:41;14.37;;;7.63;;
24859;SDS011;12936;52.006;4.350;2023-04-24T04:53:09;17.63;;;8.07;;
24859;SDS011;12936;52.006;4.350;2023-04-24T04:55:37;19.73;;;8.40;;
24859;SDS011;12936;52.006;4.350;2023-04-24T04:58:05;16.20;;;8.00;;
24859;SDS011;12936;52.006;4.350;2023-04-24T05:00:33;12.47;;;7.33;;
24859;SDS011;12936;52.006;4.350;2023-04-24T05:03:02;20.03;;;7.93;;
24859;SDS011;12936;52.006;4.350;2023-04-24T05:05:47;13.40;;;6.47;;
24859;SDS011;12936;52.006;4.350;2023-04-24T05:08:15;11.20;;;6.20;;
24859;SDS011;12936;52.006;4.350;2023-04-24T05:10:52;11.00;;;6.17;;
24859;SDS011;12936;52.006;4.350;2023-04-24T05:13:21;14.53;;;6.47;;
24859;SDS011;12936;52.006;4.350;2023-04-24T05:16:04;17.97;;;6.83;;
24859;SDS011;12936;52.006;4.350;2023-04-24T05:18:32;18.77;;;7.77;;
24859;SDS011;12936;52.006;4.350;2023-04-24T05:21:02;21.13;;;7.67;;
24859;SDS011;12936;52.006;4.350;2023-04-24T05:23:30;22.73;;;8.10;;
24859;SDS011;12936;52.006;4.350;2023-04-24T05:25:58;25.70;;;8.20;;
24859;SDS011;12936;52.006;4.350;2023-04-24T05:28:26;23.33;;;7.67;;
24859;SDS011;12936;52.006;4.350;2023-04-24T05:30:55;19.97;;;6.53;;
24859;SDS011;12936;52.006;4.350;2023-04-24T05:33:23;17.40;;;7.63;;
24859;SDS011;12936;52.006;4.350;2023-04-24T05:35:51;15.90;;;7.13;;
24859;SDS011;12936;52.006;4.350;2023-04-24T05:38:20;17.57;;;7.37;;
24859;SDS011;12936;52.006;4.350;2023-04-24T05:40:49;21.07;;;8.17;;
24859;SDS011;12936;52.006;4.350;2023-04-24T05:43:17;18.50;;;8.27;;
24859;SDS011;12936;52.006;4.350;2023-04-24T05:45:45;20.77;;;8.00;;
24859;SDS011;12936;52.006;4.350;2023-04-24T05:48:13;17.27;;;7.13;;
24859;SDS011;12936;52.006;4.350;2023-04-24T05:50:42;15.63;;;6.47;;
24859;SDS011;12936;52.006;4.350;2023-04-24T05:53:10;22.63;;;6.43;;
24859;SDS011;12936;52.006;4.350;2023-04-24T05:55:39;18.40;;;7.00;;
24859;SDS011;12936;52.006;4.350;2023-04-24T05:58:07;18.17;;;5.60;;
24859;SDS011;12936;52.006;4.350;2023-04-24T06:00:35;23.60;;;5.93;;
24859;SDS011;12936;52.006;4.350;2023-04-24T06:03:04;23.37;;;5.77;;
24859;SDS011;12936;52.006;4.350;2023-04-24T06:05:32;19.47;;;5.33;;
24859;SDS011;12936;52.006;4.350;2023-04-24T06:08:01;17.93;;;5.47;;
24859;SDS011;12936;52.006;4.350;2023-04-24T06:10:29;21.30;;;5.07;;
24859;SDS011;12936;52.006;4.350;2023-04-24T06:12:58;23.03;;;4.77;;
24859;SDS011;12936;52.006;4.350;2023-04-24T06:15:28;14.53;;;4.20;;
24859;SDS011;12936;52.006;4.350;2023-04-24T06:17:57;16.20;;;4.27;;
24859;SDS011;12936;52.006;4.350;2023-04-24T06:20:25;18.57;;;4.87;;
24859;SDS011;12936;52.006;4.350;2023-04-24T06:22:53;17.00;;;4.47;;
24859;SDS011;12936;52.006;4.350;2023-04-24T06:25:21;17.60;;;4.73;;
24859;SDS011;12936;52.006;4.350;2023-04-24T06:27:49;18.73;;;5.77;;
24859;SDS011;12936;52.006;4.350;2023-04-24T06:30:22;15.90;;;5.50;;
24859;SDS011;12936;52.006;4.350;2023-04-24T06:32:50;19.53;;;5.10;;
24859;SDS011;12936;52.006;4.350;2023-04-24T06:35:18;21.37;;;4.80;;
24859;SDS011;12936;52.006;4.350;2023-04-24T06:37:46;20.40;;;4.10;;
24859;SDS011;12936;52.006;4.350;2023-04-24T06:40:14;27.73;;;3.97;;
24859;SDS011;12936;52.006;4.350;2023-04-24T06:42:44;19.83;;;4.23;;
24859;SDS011;12936;52.006;4.350;2023-04-24T06:45:12;20.70;;;4.37;;
24859;SDS011;12936;52.006;4.350;2023-04-24T06:47:42;25.07;;;4.57;;
24859;SDS011;12936;52.006;4.350;2023-04-24T06:50:10;18.50;;;4.00;;
24859;SDS011;12936;52.006;4.350;2023-04-24T06:52:38;22.10;;;3.87;;
24859;SDS011;12936;52.006;4.350;2023-04-24T06:55:07;23.13;;;4.20;;
24859;SDS011;12936;52.006;4.350;2023-04-24T06:57:37;22.57;;;4.30;;
24859;SDS011;12936;52.006;4.350;2023-04-24T07:00:05;17.27;;;3.57;;
24859;SDS011;12936;52.006;4.350;2023-04-24T07:02:35;25.40;;;3.80;;
24859;SDS011;12936;52.006;4.350;2023-04-24T07:05:05;16.67;;;3.00;;
24859;SDS011;12936;52.006;4.350;2023-04-24T07:07:34;18.30;;;3.57;;
24859;SDS011;12936;52.006;4.350;2023-04-24T07:10:04;21.47;;;4.13;;
24859;SDS011;12936;52.006;4.350;2023-04-24T07:12:33;16.47;;;3.50;;
24859;SDS011;12936;52.006;4.350;2023-04-24T07:15:01;23.93;;;4.30;;
24859;SDS011;12936;52.006;4.350;2023-04-24T07:17:30;15.47;;;3.07;;
24859;SDS011;12936;52.006;4.350;2023-04-24T07:19:58;16.57;;;2.87;;
24859;SDS011;12936;52.006;4.350;2023-04-24T07:22:27;15.70;;;3.07;;
24859;SDS011;12936;52.006;4.350;2023-04-24T07:24:55;25.50;;;3.43;;
24859;SDS011;12936;52.006;4.350;2023-04-24T07:27:25;20.03;;;3.17;;
24859;SDS011;12936;52.006;4.350;2023-04-24T07:29:53;13.97;;;3.13;;
24859;SDS011;12936;52.006;4.350;2023-04-24T07:32:21;14.93;;;3.47;;
24859;SDS011;12936;52.006;4.350;2023-04-24T07:34:49;12.10;;;2.83;;
24859;SDS011;12936;52.006;4.350;2023-04-24T07:37:17;16.90;;;2.70;;
24859;SDS011;12936;52.006;4.350;2023-04-24T07:39:46;13.57;;;2.93;;
24859;SDS011;12936;52.006;4.350;2023-04-24T07:42:14;15.93;;;2.90;;
24859;SDS011;12936;52.006;4.350;2023-04-24T07:44:42;17.80;;;2.77;;
24859;SDS011;12936;52.006;4.350;2023-04-24T07:47:12;14.43;;;2.60;;
24859;SDS011;12936;52.006;4.350;2023-04-24T07:49:41;10.50;;;2.80;;
24859;SDS011;12936;52.006;4.350;2023-04-24T07:52:09;10.13;;;2.63;;
24859;SDS011;12936;52.006;4.350;2023-04-24T07:54:37;16.80;;;2.80;;
24859;SDS011;12936;52.006;4.350;2023-04-24T07:57:07;9.63;;;2.70;;
24859;SDS011;12936;52.006;4.350;2023-04-24T07:59:35;17.43;;;3.37;;
24859;SDS011;12936;52.006;4.350;2023-04-24T08:02:03;32.43;;;5.90;;
24859;SDS011;12936;52.006;4.350;2023-04-24T08:04:32;11.80;;;2.60;;
24859;SDS011;12936;52.006;4.350;2023-04-24T08:07:01;13.37;;;2.53;;
24859;SDS011;12936;52.006;4.350;2023-04-24T08:09:29;11.23;;;2.27;;
24859;SDS011;12936;52.006;4.350;2023-04-24T08:11:57;14.50;;;2.07;;
24859;SDS011;12936;52.006;4.350;2023-04-24T08:14:26;9.83;;;1.90;;
24859;SDS011;12936;52.006;4.350;2023-04-24T08:16:54;7.57;;;2.20;;
24859;SDS011;12936;52.006;4.350;2023-04-24T08:19:23;21.00;;;2.23;;
24859;SDS011;12936;52.006;4.350;2023-04-24T08:21:51;9.90;;;1.90;;
24859;SDS011;12936;52.006;4.350;2023-04-24T08:24:19;7.93;;;1.93;;
24859;SDS011;12936;52.006;4.350;2023-04-24T08:26:48;14.13;;;2.67;;
24859;SDS011;12936;52.006;4.350;2023-04-24T08:29:17;10.83;;;2.00;;
24859;SDS011;12936;52.006;4.350;2023-04-24T08:31:47;11.87;;;1.80;;
24859;SDS011;12936;52.006;4.350;2023-04-24T08:34:15;9.70;;;1.57;;
24859;SDS011;12936;52.006;4.350;2023-04-24T08:36:43;7.83;;;1.57;;
24859;SDS011;12936;52.006;4.350;2023-04-24T08:39:13;8.33;;;1.40;;
24859;SDS011;12936;52.006;4.350;2023-04-24T08:41:42;7.60;;;1.57;;
24859;SDS011;12936;52.006;4.350;2023-04-24T08:44:11;3.70;;;1.20;;
24859;SDS011;12936;52.006;4.350;2023-04-24T08:46:42;9.30;;;1.63;;
24859;SDS011;12936;52.006;4.350;2023-04-24T08:49:13;7.90;;;1.07;;
24859;SDS011;12936;52.006;4.350;2023-04-24T08:51:42;3.10;;;1.30;;
24859;SDS011;12936;52.006;4.350;2023-04-24T08:54:13;10.00;;;1.40;;
24859;SDS011;12936;52.006;4.350;2023-04-24T08:56:44;9.17;;;1.70;;
24859;SDS011;12936;52.006;4.350;2023-04-24T08:59:15;5.83;;;1.40;;
24859;SDS011;12936;52.006;4.350;2023-04-24T09:01:43;10.23;;;1.37;;
24859;SDS011;12936;52.006;4.350;2023-04-24T09:04:15;5.30;;;1.17;;
24859;SDS011;12936;52.006;4.350;2023-04-24T09:06:47;6.00;;;0.80;;
24859;SDS011;12936;52.006;4.350;2023-04-24T09:09:16;5.20;;;1.03;;
24859;SDS011;12936;52.006;4.350;2023-04-24T09:11:45;4.77;;;1.17;;
24859;SDS011;12936;52.006;4.350;2023-04-24T09:14:14;4.50;;;1.10;;
24859;SDS011;12936;52.006;4.350;2023-04-24T09:16:43;6.73;;;1.13;;
24859;SDS011;12936;52.006;4.350;2023-04-24T09:19:11;3.90;;;0.93;;
24859;SDS011;12936;52.006;4.350;2023-04-24T09:21:40;7.33;;;1.20;;
24859;SDS011;12936;52.006;4.350;2023-04-24T09:24:14;3.93;;;1.00;;
24859;SDS011;12936;52.006;4.350;2023-04-24T09:26:44;3.43;;;0.97;;
24859;SDS011;12936;52.006;4.350;2023-04-24T09:29:14;7.97;;;1.30;;
24859;SDS011;12936;52.006;4.350;2023-04-24T09:31:43;7.60;;;1.20;;
24859;SDS011;12936;52.006;4.350;2023-04-24T09:34:12;6.93;;;1.47;;
24859;SDS011;12936;52.006;4.350;2023-04-24T09:36:42;5.50;;;0.83;;
24859;SDS011;12936;52.006;4.350;2023-04-24T09:39:11;3.77;;;1.03;;
24859;SDS011;12936;52.006;4.350;2023-04-24T09:41:46;4.83;;;0.90;;
24859;SDS011;12936;52.006;4.350;2023-04-24T09:44:15;4.40;;;0.97;;
24859;SDS011;12936;52.006;4.350;2023-04-24T09:46:45;5.13;;;0.93;;
24859;SDS011;12936;52.006;4.350;2023-04-24T09:49:21;7.07;;;1.20;;
24859;SDS011;12936;52.006;4.350;2023-04-24T09:51:51;4.40;;;1.10;;
24859;SDS011;12936;52.006;4.350;2023-04-24T09:54:20;5.97;;;1.60;;
24859;SDS011;12936;52.006;4.350;2023-04-24T09:56:49;6.33;;;0.90;;
24859;SDS011;12936;52.006;4.350;2023-04-24T09:59:18;5.90;;;1.27;;
24859;SDS011;12936;52.006;4.350;2023-04-24T10:01:47;5.30;;;0.80;;
24859;SDS011;12936;52.006;4.350;2023-04-24T10:04:16;8.43;;;1.10;;
24859;SDS011;12936;52.006;4.350;2023-04-24T10:06:46;7.27;;;0.90;;
24859;SDS011;12936;52.006;4.350;2023-04-24T10:09:18;5.73;;;1.10;;
24859;SDS011;12936;52.006;4.350;2023-04-24T10:11:48;7.87;;;1.27;;
24859;SDS011;12936;52.006;4.350;2023-04-24T10:14:20;8.37;;;1.17;;
24859;SDS011;12936;52.006;4.350;2023-04-24T10:16:49;5.77;;;1.20;;
24859;SDS011;12936;52.006;4.350;2023-04-24T10:19:20;16.53;;;1.63;;
24859;SDS011;12936;52.006;4.350;2023-04-24T10:21:49;7.40;;;1.20;;
24859;SDS011;12936;52.006;4.350;2023-04-24T10:24:18;10.70;;;1.23;;
24859;SDS011;12936;52.006;4.350;2023-04-24T10:26:47;10.20;;;1.70;;
24859;SDS011;12936;52.006;4.350;2023-04-24T10:29:16;8.50;;;1.20;;
24859;SDS011;12936;52.006;4.350;2023-04-24T10:31:47;9.63;;;1.20;;
24859;SDS011;12936;52.006;4.350;2023-04-24T10:34:16;9.87;;;1.67;;
24859;SDS011;12936;52.006;4.350;2023-04-24T10:36:47;6.50;;;1.23;;
24859;SDS011;12936;52.006;4.350;2023-04-24T10:39:22;6.47;;;1.40;;
24859;SDS011;12936;52.006;4.350;2023-04-24T10:41:53;7.47;;;1.50;;
24859;SDS011;12936;52.006;4.350;2023-04-24T10:44:23;5.60;;;1.03;;
24859;SDS011;12936;52.006;4.350;2023-04-24T10:46:53;4.20;;;1.00;;
24859;SDS011;12936;52.006;4.350;2023-04-24T10:49:27;7.37;;;1.40;;
24859;SDS011;12936;52.006;4.350;2023-04-24T10:51:59;8.53;;;1.53;;
24859;SDS011;12936;52.006;4.350;2023-04-24T10:54:33;5.73;;;1.10;;
24859;SDS011;12936;52.006;4.350;2023-04-24T11:00:09;4.80;;;0.80;;
24859;SDS011;12936;52.006;4.350;2023-04-24T11:02:41;2.17;;;0.87;;
24859;SDS011;12936;52.006;4.350;2023-04-24T11:05:15;2.30;;;0.50;;
24859;SDS011;12936;52.006;4.350;2023-04-24T11:10:44;2.73;;;0.70;;
24859;SDS011;12936;52.006;4.350;2023-04-24T11:13:14;4.73;;;1.03;;
24859;SDS011;12936;52.006;4.350;2023-04-24T11:15:43;4.17;;;0.73;;
24859;SDS011;12936;52.006;4.350;2023-04-24T11:18:14;9.17;;;1.20;;
24859;SDS011;12936;52.006;4.350;2023-04-24T11:20:43;7.17;;;1.20;;
24859;SDS011;12936;52.006;4.350;2023-04-24T11:23:12;5.90;;;1.10;;
24859;SDS011;12936;52.006;4.350;2023-04-24T11:25:41;4.83;;;1.67;;
24859;SDS011;12936;52.006;4.350;2023-04-24T11:28:13;5.80;;;1.00;;
24859;SDS011;12936;52.006;4.350;2023-04-24T11:30:43;5.30;;;1.10;;
24859;SDS011;12936;52.006;4.350;2023-04-24T11:33:11;7.33;;;1.30;;
24859;SDS011;12936;52.006;4.350;2023-04-24T11:35:46;11.20;;;1.30;;
24859;SDS011;12936;52.006;4.350;2023-04-24T11:38:14;9.37;;;1.43;;
24859;SDS011;12936;52.006;4.350;2023-04-24T11:40:50;9.63;;;1.20;;
24859;SDS011;12936;52.006;4.350;2023-04-24T11:43:20;6.13;;;1.23;;
24859;SDS011;12936;52.006;4.350;2023-04-24T11:45:49;7.33;;;1.17;;
24859;SDS011;12936;52.006;4.350;2023-04-24T11:48:18;9.57;;;1.43;;
24859;SDS011;12936;52.006;4.350;2023-04-24T11:50:50;14.03;;;1.60;;
24859;SDS011;12936;52.006;4.350;2023-04-24T11:53:18;7.50;;;1.80;;
24859;SDS011;12936;52.006;4.350;2023-04-24T11:55:47;8.43;;;1.40;;
24859;SDS011;12936;52.006;4.350;2023-04-24T11:58:16;7.20;;;1.97;;
24859;SDS011;12936;52.006;4.350;2023-04-24T12:00:55;13.03;;;2.30;;
24859;SDS011;12936;52.006;4.350;2023-04-24T12:03:24;11.27;;;2.07;;
24859;SDS011;12936;52.006;4.350;2023-04-24T12:05:52;12.97;;;2.40;;
24859;SDS011;12936;52.006;4.350;2023-04-24T12:08:31;11.83;;;1.97;;
24859;SDS011;12936;52.006;4.350;2023-04-24T12:11:02;12.10;;;1.97;;
24859;SDS011;12936;52.006;4.350;2023-04-24T12:13:32;9.27;;;2.63;;
24859;SDS011;12936;52.006;4.350;2023-04-24T12:16:02;10.43;;;2.40;;
24859;SDS011;12936;52.006;4.350;2023-04-24T12:18:30;19.33;;;2.47;;
24859;SDS011;12936;52.006;4.350;2023-04-24T12:21:14;9.87;;;2.27;;
24859;SDS011;12936;52.006;4.350;2023-04-24T12:23:46;15.70;;;2.90;;
24859;SDS011;12936;52.006;4.350;2023-04-24T12:26:18;15.60;;;2.87;;
24859;SDS011;12936;52.006;4.350;2023-04-24T12:28:50;11.90;;;2.57;;
24859;SDS011;12936;52.006;4.350;2023-04-24T12:31:18;8.97;;;2.00;;
24859;SDS011;12936;52.006;4.350;2023-04-24T12:33:48;10.90;;;2.40;;
24859;SDS011;12936;52.006;4.350;2023-04-24T12:36:17;10.07;;;2.37;;
24859;SDS011;12936;52.006;4.350;2023-04-24T12:38:52;8.47;;;2.03;;
24859;SDS011;12936;52.006;4.350;2023-04-24T12:41:20;17.17;;;2.93;;
24859;SDS011;12936;52.006;4.350;2023-04-24T12:43:53;11.97;;;2.37;;
24859;SDS011;12936;52.006;4.350;2023-04-24T12:46:21;17.70;;;3.33;;
24859;SDS011;12936;52.006;4.350;2023-04-24T12:48:49;11.97;;;2.53;;
24859;SDS011;12936;52.006;4.350;2023-04-24T12:51:17;16.33;;;2.80;;
24859;SDS011;12936;52.006;4.350;2023-04-24T12:53:46;12.03;;;2.20;;
24859;SDS011;12936;52.006;4.350;2023-04-24T12:56:14;15.00;;;2.53;;
24859;SDS011;12936;52.006;4.350;2023-04-24T12:58:42;10.90;;;2.17;;
24859;SDS011;12936;52.006;4.350;2023-04-24T13:01:11;7.67;;;1.87;;
24859;SDS011;12936;52.006;4.350;2023-04-24T13:03:40;13.17;;;2.03;;
24859;SDS011;12936;52.006;4.350;2023-04-24T13:06:09;16.80;;;2.73;;
24859;SDS011;12936;52.006;4.350;2023-04-24T13:08:37;10.43;;;2.10;;
24859;SDS011;12936;52.006;4.350;2023-04-24T13:11:05;15.53;;;3.10;;
24859;SDS011;12936;52.006;4.350;2023-04-24T13:13:33;22.47;;;5.13;;
24859;SDS011;12936;52.006;4.350;2023-04-24T13:16:01;14.83;;;2.70;;
24859;SDS011;12936;52.006;4.350;2023-04-24T13:18:30;11.20;;;2.60;;
24859;SDS011;12936;52.006;4.350;2023-04-24T13:20:58;10.50;;;2.70;;
24859;SDS011;12936;52.006;4.350;2023-04-24T13:23:26;10.13;;;2.90;;
24859;SDS011;12936;52.006;4.350;2023-04-24T13:25:55;15.17;;;3.57;;
24859;SDS011;12936;52.006;4.350;2023-04-24T13:28:25;8.57;;;2.33;;
24859;SDS011;12936;52.006;4.350;2023-04-24T13:30:53;9.87;;;2.27;;
24859;SDS011;12936;52.006;4.350;2023-04-24T13:33:21;10.90;;;2.50;;
24859;SDS011;12936;52.006;4.350;2023-04-24T13:35:50;10.23;;;2.10;;
24859;SDS011;12936;52.006;4.350;2023-04-24T13:38:18;6.30;;;2.13;;
24859;SDS011;12936;52.006;4.350;2023-04-24T13:40:47;12.40;;;2.33;;
24859;SDS011;12936;52.006;4.350;2023-04-24T13:43:16;6.30;;;2.30;;
24859;SDS011;12936;52.006;4.350;2023-04-24T13:45:44;12.57;;;2.40;;
24859;SDS011;12936;52.006;4.350;2023-04-24T13:48:12;11.27;;;2.87;;
24859;SDS011;12936;52.006;4.350;2023-04-24T13:50:42;10.00;;;2.27;;
24859;SDS011;12936;52.006;4.350;2023-04-24T13:53:11;11.93;;;3.50;;
24859;SDS011;12936;52.006;4.350;2023-04-24T13:55:39;13.20;;;3.00;;
24859;SDS011;12936;52.006;4.350;2023-04-24T13:58:07;16.93;;;3.30;;
24859;SDS011;12936;52.006;4.350;2023-04-24T14:00:36;16.03;;;2.73;;
24859;SDS011;12936;52.006;4.350;2023-04-24T14:03:04;15.17;;;3.17;;
24859;SDS011;12936;52.006;4.350;2023-04-24T14:05:33;12.67;;;3.33;;
24859;SDS011;12936;52.006;4.350;2023-04-24T14:08:04;11.07;;;3.00;;
24859;SDS011;12936;52.006;4.350;2023-04-24T14:10:33;18.60;;;3.83;;
24859;SDS011;12936;52.006;4.350;2023-04-24T14:13:02;14.93;;;3.70;;
24859;SDS011;12936;52.006;4.350;2023-04-24T14:15:30;13.70;;;3.20;;
24859;SDS011;12936;52.006;4.350;2023-04-24T14:17:58;13.30;;;3.20;;
24859;SDS011;12936;52.006;4.350;2023-04-24T14:20:27;15.37;;;3.40;;
24859;SDS011;12936;52.006;4.350;2023-04-24T14:22:55;14.93;;;3.33;;
24859;SDS011;12936;52.006;4.350;2023-04-24T14:25:25;10.93;;;2.93;;
24859;SDS011;12936;52.006;4.350;2023-04-24T14:27:54;15.20;;;3.37;;
24859;SDS011;12936;52.006;4.350;2023-04-24T14:30:22;18.33;;;3.80;;
24859;SDS011;12936;52.006;4.350;2023-04-24T14:32:51;18.00;;;3.90;;
24859;SDS011;12936;52.006;4.350;2023-04-24T14:35:19;11.87;;;3.63;;
24859;SDS011;12936;52.006;4.350;2023-04-24T14:37:47;13.60;;;3.10;;
24859;SDS011;12936;52.006;4.350;2023-04-24T14:40:16;12.80;;;3.17;;
24859;SDS011;12936;52.006;4.350;2023-04-24T14:43:05;11.13;;;3.13;;
24859;SDS011;12936;52.006;4.350;2023-04-24T14:45:33;16.83;;;2.70;;
24859;SDS011;12936;52.006;4.350;2023-04-24T14:48:01;17.23;;;3.37;;
24859;SDS011;12936;52.006;4.350;2023-04-24T14:50:29;13.90;;;2.90;;
24859;SDS011;12936;52.006;4.350;2023-04-24T14:52:58;12.53;;;3.30;;
24859;SDS011;12936;52.006;4.350;2023-04-24T14:55:28;10.60;;;2.60;;
24859;SDS011;12936;52.006;4.350;2023-04-24T14:57:56;8.57;;;2.67;;